Flight Track Log - Related Links

Times and Time Zones

All times are in EDT time to prevent confusion due to time zone crossing. See the UAL4476 flight status page for this flight to view local times or setup timezone preferences in your user account.

Time Position Orientation Groundspeed Altitude Reporting Facility
EDT Latitude Longitude Course Direction KTS MPH feet Rate Location/Type
Fri 08:52:22 AM 41.3958 -81.8869 275° West 183 211 1,700  Level Cleveland Center
Fri 08:53:12 AM 41.3994 -81.9422 275° West 213 245 3,300 1,964 Climbing Cleveland Center
Fri 08:54:12 AM 41.4467 -81.9958 320° Northwest 275 316 5,300 2,200 Climbing Cleveland Center
Fri 08:55:12 AM 41.4975 -81.9417 39° Northeast 313 360 7,700 2,400 Climbing Cleveland Center
Fri 08:56:12 AM 41.5483 -81.8678 47° Northeast 296 341 10,100 1,600 Climbing Cleveland Center
Fri 08:57:12 AM 41.6056 -81.7800 49° Northeast 296 341 10,900 1,300 Climbing Cleveland Center
Fri 08:58:12 AM 41.6733 -81.6756 49° Northeast 322 371 12,700 1,600 Climbing Cleveland Center
Fri 08:59:12 AM 41.7389 -81.5711 50° Northeast 348 400 14,100 1,300 Climbing Cleveland Center
Fri 09:00:12 AM 41.7628 -81.4406 76° East 359 413 15,300 1,250 Climbing Cleveland Center
Fri 09:01:12 AM 41.7867 -81.3017 77° East 365 420 16,600 1,250 Climbing Cleveland Center
Fri 09:02:12 AM 41.8106 -81.1625 77° East 375 432 17,800 1,100 Climbing Cleveland Center
Fri 09:03:12 AM 41.8342 -81.0236 77° East 381 438 18,800 1,150 Climbing Cleveland Center
Fri 09:04:12 AM 41.8575 -80.8814 78° East 381 438 20,100 1,300 Climbing Cleveland Center
Fri 09:05:12 AM 41.8806 -80.7367 78° East 393 452 21,400 1,200 Climbing Cleveland Center
Fri 09:06:12 AM 41.9017 -80.6056 78° East 393 452 22,500 1,200 Climbing Cleveland Center
Fri 09:07:12 AM 41.9244 -80.4603 78° East 393 452 23,800 1,300 Climbing Cleveland Center
Fri 09:08:12 AM 41.9472 -80.3097 78° East 393 452 25,100 1,300 Climbing Cleveland Center
Fri 09:09:12 AM 41.9717 -80.1669 77° East 393 452 26,400 1,300 Climbing Cleveland Center
Fri 09:10:12 AM 41.9942 -80.0217 78° East 393 452 27,700 1,350 Climbing Cleveland Center
Fri 09:11:12 AM 42.0203 -79.8619 78° East 393 452 29,100 1,350 Climbing Cleveland Center
Fri 09:12:12 AM 42.0422 -79.7192 78° East 393 452 30,400 1,300 Climbing Cleveland Center
Fri 09:13:12 AM 42.0639 -79.5736 79° East 393 452 31,700 1,350 Climbing Cleveland Center
Fri 09:14:12 AM 42.0856 -79.4278 79° East 393 452 33,100 1,400 Climbing Cleveland Center
Fri 09:15:12 AM 42.1089 -79.2844 78° East 393 452 34,500 950 Climbing Cleveland Center
Fri 09:16:12 AM 42.1303 -79.1386 79° East 393 452 35,000 250 Climbing Cleveland Center
Fri 09:17:12 AM 42.1511 -78.9811 80° East 399 459 35,000  Level Cleveland Center
Fri 09:18:12 AM 42.1758 -78.8181 78° East 420 483 35,000  Level Cleveland Center
Fri 09:19:12 AM 42.1983 -78.6689 78° East 448 516 35,000  Level Cleveland Center
Fri 09:20:12 AM 42.2206 -78.5056 80° East 448 516 35,000  Level Cleveland Center
Fri 09:21:12 AM 42.2425 -78.3450 79° East 448 516 35,000  Level Cleveland Center
Fri 09:22:12 AM 42.2664 -78.1842 79° East 443 510 35,000  Level Cleveland Center
Fri 09:23:12 AM 42.2881 -78.0206 80° East 437 503 35,000  Level Cleveland Center
Fri 09:24:12 AM 42.3114 -77.8594 79° East 437 503 35,000  Level Cleveland Center
Fri 09:25:12 AM 42.3322 -77.6958 80° East 437 503 35,000  Level Cleveland Center
Fri 09:27:20 AM 42.3806 -77.3289 80° East 456 525 35,000  Level Boston Center
Fri 09:28:20 AM 42.3994 -77.1783 80° East 450 518 35,000  Level Boston Center
Fri 09:29:20 AM 42.4206 -77.0167 80° East 445 512 35,000  Level Boston Center
Fri 09:30:32 AM 42.4417 -76.8550 80° East 445 512 35,000  Level Boston Center
Fri 09:31:32 AM 42.4625 -76.6933 80° East 445 512 35,000  Level Boston Center
Fri 09:32:32 AM 42.4864 -76.4950 81° East 440 506 35,000  Level Boston Center
Fri 09:33:32 AM 42.5067 -76.3328 80° East 440 506 35,000  Level Boston Center
Fri 09:34:32 AM 42.5183 -76.1700 84° East 440 506 35,000  Level Boston Center
Fri 09:35:32 AM 42.5217 -76.0067 88° East 440 506 35,000  Level Boston Center
Fri 09:36:32 AM 42.5244 -75.8408 89° East 440 506 35,000  Level Boston Center
Fri 09:37:32 AM 42.5272 -75.6775 89° East 440 506 35,000  Level Boston Center
Fri 09:38:32 AM 42.5319 -75.5114 88° East 440 506 35,000  Level Boston Center
Fri 09:39:32 AM 42.5344 -75.3311 89° East 440 506 35,000  Level Boston Center
Fri 09:40:32 AM 42.5364 -75.1706 89° East 433 498 35,000  Level Boston Center
Fri 09:41:32 AM 42.5403 -75.0100 88° East 427 491 35,000  Level Boston Center
Fri 09:42:32 AM 42.5436 -74.8553 88° East 421 484 35,000  Level Boston Center
Fri 09:43:32 AM 42.5428 -74.6944 90° East 421 484 35,000  Level Boston Center
Fri 09:44:32 AM 42.5458 -74.5339 88° East 421 484 35,000  Level Boston Center
Fri 09:45:32 AM 42.5486 -74.3792 89° East 416 479 35,000  Level Boston Center
Fri 09:46:32 AM 42.5489 -74.2214 90° East 416 479 35,000  Level Boston Center
Fri 09:47:32 AM 42.5514 -74.0633 89° East 416 479 35,000 -250 Level Boston Center
Fri 09:48:32 AM 42.5536 -73.9058 89° East 416 479 34,500 -700 Descending Boston Center
Fri 09:49:32 AM 42.5533 -73.7450 90° East 422 486 33,600 -900 Descending Boston Center
Fri 09:50:32 AM 42.5531 -73.5814 90° East 422 486 32,700 -850 Descending Boston Center
Fri 09:51:32 AM 42.5542 -73.4519 89° East 422 486 31,900 -900 Descending Boston Center
Fri 09:52:32 AM 42.5558 -73.2575 89° East 439 505 30,900 -1,000 Descending Boston Center
Fri 09:53:32 AM 42.5547 -73.1025 91° East 438 504 29,900 -950 Descending Boston Center
Fri 09:54:32 AM 42.5536 -72.9333 90° East 438 504 29,000 -900 Descending Boston Center
Fri 09:55:32 AM 42.5519 -72.7756 91° East 431 496 28,100 -1,300 Descending Boston Center
Fri 09:56:32 AM 42.5503 -72.6119 91° East 426 490 26,400 -1,950 Descending Boston Center
Fri 09:57:32 AM 42.5483 -72.4514 91° East 421 484 24,200 -2,250 Descending Boston Center
Fri 09:58:32 AM 42.5483 -72.3019 90° East 415 478 21,900 -2,650 Descending Boston Center
Fri 09:59:32 AM 42.5458 -72.1528 91° East 376 433 18,900 -2,500 Descending Boston Center
Fri 10:00:32 AM 42.5414 -72.0147 92° East 363 418 16,900 -2,350 Descending Boston Center
Fri 10:01:32 AM 42.5283 -71.8850 98° East 357 411 14,200 -2,450 Descending Boston Center
Fri 10:02:32 AM 42.5192 -71.7583 96° East 344 396 12,000 -1,650 Descending Boston Center
Fri 10:03:32 AM 42.5081 -71.6289 97° East 344 396 10,900 -779 Descending Boston Center
Fri 10:03:49 AM 42.5000 -71.5833 103° East 343 395 11,000 78 Climbing KA90
Fri 10:04:49 AM 42.4833 -71.4667 101° East 339 390 11,000 48 Level KA90
Fri 10:05:55 AM 42.4833 -71.3500 90° East 273 314 11,100 -571 Climbing KA90
Fri 10:06:55 AM 42.4667 -71.2500 103° East 262 302 9,800 -1,571 Descending KA90
Fri 10:08:01 AM 42.4667 -71.1500 90° East 252 290 7,800 -1,350 Descending KA90
Fri 10:08:55 AM 42.4500 -71.0667 105° East 221 254 7,100 -895 Descending KA90
Fri 10:09:55 AM 42.4167 -71.0000 124° Southeast 224 258 6,100 -500 Descending KA90
Fri 10:10:55 AM 42.3667 -70.9667 154° Southeast 222 255 6,100  Level KA90
Fri 10:12:01 AM 42.3000 -70.9333 160° South 213 245 6,100 -250 Level KA90
Fri 10:12:55 AM 42.2500 -70.9667 206° Southwest 238 274 5,600 -1,000 Descending KA90
Fri 10:13:55 AM 42.1833 -70.9833 190° South 234 269 4,200 -1,316 Descending KA90
Fri 10:14:49 AM 42.1333 -71.0167 206° Southwest 244 281 3,100 -600 Descending KA90
Fri 10:15:55 AM 42.1167 -71.1000 255° West 224 258 3,000 -48 Descending KA90
Fri 10:16:55 AM 42.1667 -71.1000 360° North 198 228 3,000  Level KA90
Fri 10:17:55 AM 42.2167 -71.0833 14° North 163 188 3,000 -347 Level KA90
Fri 10:18:56 AM 42.2500 -71.0500 37° Northeast 158 182 2,300 -700 Descending KA90
Fri 10:19:55 AM 42.2833 -71.0333 20° North 124 143 1,600 -600 Descending KA90
Fri 10:20:56 AM 42.3167 -71.0333 360° North 118 136 1,100 -694 Descending KA90
Fri 10:21:56 AM 42.3500 -71.0167 20° North 117 135 200 -900 Descending KA90

Login

Don't have an account? Register now (free) for customized features, flight alerts, and more!